createdAt,value
2019-05-25T00:00:12.831Z,14.13
2019-05-25T00:01:12.821Z,14.07
2019-05-25T00:02:12.794Z,14.08
2019-05-25T00:03:12.774Z,14.04
2019-05-25T00:04:12.761Z,13.95
2019-05-25T00:05:12.739Z,13.91
2019-05-25T00:06:12.773Z,13.93
2019-05-25T00:07:12.735Z,13.82
2019-05-25T00:08:12.680Z,13.85
2019-05-25T00:09:12.666Z,13.86
2019-05-25T00:10:12.644Z,13.89
2019-05-25T00:11:12.633Z,13.83
2019-05-25T00:12:12.610Z,13.91
2019-05-25T00:13:12.602Z,13.91
2019-05-25T00:14:12.570Z,13.86
2019-05-25T00:15:12.551Z,13.91
2019-05-25T00:16:12.538Z,13.93
2019-05-25T00:17:12.517Z,13.85
2019-05-25T00:18:12.652Z,13.78
2019-05-25T00:19:12.474Z,13.86
2019-05-25T00:20:12.455Z,13.87
2019-05-25T00:21:14.204Z,13.91
2019-05-25T00:22:12.418Z,13.87
2019-05-25T00:23:12.412Z,13.94
2019-05-25T00:24:12.944Z,13.87
2019-05-25T00:25:12.363Z,13.89
2019-05-25T00:26:12.353Z,13.86
2019-05-25T00:27:12.329Z,13.80
2019-05-25T00:28:12.306Z,13.93
2019-05-25T00:29:12.288Z,13.83
2019-05-25T00:30:12.267Z,13.83
2019-05-25T00:31:12.259Z,13.80
2019-05-25T00:32:12.228Z,13.80
2019-05-25T00:33:12.219Z,13.75
2019-05-25T00:34:12.200Z,13.79
2019-05-25T00:35:12.174Z,13.73
2019-05-25T00:36:12.154Z,13.68
2019-05-25T00:37:12.137Z,13.61
2019-05-25T00:38:12.120Z,13.58
2019-05-25T00:42:02.581Z,13.64
2019-05-25T00:42:29.347Z,13.62
2019-05-25T00:44:02.562Z,13.60
2019-05-25T00:44:29.310Z,13.60
2019-05-25T00:45:29.290Z,13.54
2019-05-25T00:46:29.281Z,13.64
2019-05-25T00:47:29.260Z,13.55
2019-05-25T00:48:29.234Z,13.57
2019-05-25T00:49:29.214Z,13.58
2019-05-25T00:50:29.210Z,13.55
2019-05-25T00:51:29.178Z,13.58
2019-05-25T00:52:29.155Z,13.54
2019-05-25T00:53:29.137Z,13.57
2019-05-25T00:54:29.118Z,13.64
2019-05-25T00:55:29.101Z,13.60
2019-05-25T00:56:29.089Z,13.61
2019-05-25T00:58:32.761Z,13.64
2019-05-25T00:59:32.750Z,13.58
2019-05-25T01:00:32.744Z,13.43
2019-05-25T01:01:32.703Z,13.52
2019-05-25T01:02:32.694Z,13.62
2019-05-25T01:03:32.665Z,13.58
2019-05-25T01:04:32.646Z,13.54
2019-05-25T01:05:32.627Z,13.57
2019-05-25T01:06:32.614Z,13.50
2019-05-25T01:08:05.797Z,13.52
2019-05-25T01:08:32.569Z,13.55
2019-05-25T01:10:05.758Z,13.49
2019-05-25T01:10:32.532Z,13.58
2019-05-25T01:11:32.512Z,13.52
2019-05-25T01:12:32.493Z,13.54
2019-05-25T01:13:32.474Z,13.57
2019-05-25T01:14:32.460Z,13.54
2019-05-25T01:15:32.438Z,13.55
2019-05-25T01:16:32.418Z,13.54
2019-05-25T01:17:32.404Z,13.55
2019-05-25T01:18:32.378Z,13.58
2019-05-25T01:19:32.358Z,13.42
2019-05-25T01:20:32.353Z,13.39
2019-05-25T01:21:32.321Z,13.43
2019-05-25T01:22:32.304Z,13.49
2019-05-25T01:23:32.288Z,13.42
2019-05-25T01:24:43.869Z,13.43
2019-05-25T01:25:32.242Z,13.40
2019-05-25T01:26:32.227Z,13.36
2019-05-25T01:27:32.210Z,13.36
2019-05-25T01:28:32.187Z,13.37
2019-05-25T01:29:32.174Z,13.43
2019-05-25T01:30:32.149Z,13.45
2019-05-25T01:31:32.125Z,13.36
2019-05-25T01:32:32.118Z,13.42
2019-05-25T01:33:32.087Z,13.36
2019-05-25T01:34:32.078Z,13.37
2019-05-25T01:35:32.058Z,13.30
2019-05-25T01:36:32.030Z,13.33
2019-05-25T01:37:32.011Z,13.40
2019-05-25T01:38:31.992Z,13.40
2019-05-25T01:39:31.973Z,13.47
2019-05-25T01:40:32.000Z,13.42
2019-05-25T01:41:31.934Z,13.40
2019-05-25T01:42:31.924Z,13.43
2019-05-25T01:43:31.894Z,13.42
2019-05-25T01:44:31.876Z,13.54
2019-05-25T01:45:31.861Z,13.46
2019-05-25T01:46:31.852Z,13.40
2019-05-25T01:47:31.819Z,13.42
2019-05-25T01:48:31.797Z,13.28
2019-05-25T01:49:31.780Z,13.39
2019-05-25T01:50:31.962Z,13.24
2019-05-25T01:51:31.742Z,13.30
2019-05-25T01:52:31.723Z,13.26
2019-05-25T01:53:31.705Z,13.17
2019-05-25T01:54:31.683Z,13.21
2019-05-25T01:55:31.667Z,13.26
2019-05-25T01:56:31.646Z,13.28
2019-05-25T01:57:31.635Z,13.37
2019-05-25T01:58:31.617Z,13.31
2019-05-25T01:59:31.587Z,13.26
2019-05-25T02:00:31.568Z,13.33
2019-05-25T02:01:31.549Z,13.28
2019-05-25T02:02:31.530Z,13.19
2019-05-25T02:03:31.507Z,13.24
2019-05-25T02:04:31.491Z,13.12
2019-05-25T02:05:31.478Z,13.16
2019-05-25T02:06:31.453Z,13.16
2019-05-25T02:07:31.434Z,13.16
2019-05-25T02:08:31.410Z,13.12
2019-05-25T02:09:31.406Z,13.11
2019-05-25T02:10:31.372Z,13.09
2019-05-25T02:11:31.354Z,13.08
2019-05-25T02:12:31.335Z,13.01
2019-05-25T02:13:31.316Z,12.99
2019-05-25T02:14:31.295Z,13.05
2019-05-25T02:15:31.281Z,13.03
2019-05-25T02:16:31.257Z,13.13
2019-05-25T02:17:31.236Z,13.06
2019-05-25T02:18:31.219Z,13.02
2019-05-25T02:19:31.197Z,13.06
2019-05-25T02:20:31.177Z,13.11
2019-05-25T02:21:31.183Z,12.99
2019-05-25T02:22:31.137Z,12.90
2019-05-25T02:23:31.117Z,12.93
2019-05-25T02:24:31.121Z,12.88
2019-05-25T02:25:31.078Z,12.91
2019-05-25T02:26:31.059Z,12.98
2019-05-25T02:27:31.056Z,12.93
2019-05-25T02:28:31.044Z,12.93
2019-05-25T02:29:31.018Z,12.88
2019-05-25T02:30:30.995Z,12.90
2019-05-25T02:31:30.970Z,12.87
2019-05-25T02:32:30.943Z,12.84
2019-05-25T02:33:30.924Z,12.88
2019-05-25T02:34:30.911Z,12.87
2019-05-25T02:35:30.881Z,12.86
2019-05-25T02:36:30.871Z,12.86
2019-05-25T02:37:30.842Z,12.75
2019-05-25T02:38:30.823Z,12.75
2019-05-25T02:39:30.802Z,12.78
2019-05-25T02:40:30.783Z,12.80
2019-05-25T02:41:30.765Z,12.73
2019-05-25T02:42:30.745Z,12.73
2019-05-25T02:43:30.723Z,12.73
2019-05-25T02:44:30.710Z,12.69
2019-05-25T02:45:30.685Z,12.61
2019-05-25T02:46:30.667Z,12.63
2019-05-25T02:47:30.646Z,12.58
2019-05-25T02:48:30.628Z,12.63
2019-05-25T02:49:30.606Z,12.58
2019-05-25T02:50:30.588Z,12.57
2019-05-25T02:51:30.571Z,12.61
2019-05-25T02:52:30.548Z,12.61
2019-05-25T02:53:30.529Z,12.55
2019-05-25T02:54:30.510Z,12.58
2019-05-25T02:55:34.244Z,12.54
2019-05-25T02:56:30.469Z,12.61
2019-05-25T02:57:30.451Z,12.58
2019-05-25T02:58:30.429Z,12.61
2019-05-25T03:00:30.398Z,12.57
2019-05-25T03:01:30.376Z,12.58
2019-05-25T03:02:30.350Z,12.62
2019-05-25T03:03:30.328Z,12.62
2019-05-25T03:04:30.309Z,12.58
2019-05-25T03:05:30.290Z,12.61
2019-05-25T03:06:30.271Z,12.57
2019-05-25T03:07:30.260Z,12.61
2019-05-25T03:08:30.230Z,12.61
2019-05-25T03:09:30.210Z,12.63
2019-05-25T03:10:30.189Z,12.57
2019-05-25T03:11:30.176Z,12.65
2019-05-25T03:12:30.152Z,12.55
2019-05-25T03:13:30.143Z,12.61
2019-05-25T03:14:30.123Z,12.61
2019-05-25T03:15:30.087Z,12.63
2019-05-25T03:16:30.070Z,12.55
2019-05-25T03:17:30.052Z,12.54
2019-05-25T03:18:30.038Z,12.62
2019-05-25T03:19:30.010Z,12.69
2019-05-25T03:20:29.990Z,12.76
2019-05-25T03:21:29.973Z,12.65
2019-05-25T03:22:29.952Z,12.66
2019-05-25T03:23:29.930Z,12.76
2019-05-25T03:24:29.910Z,12.72
2019-05-25T03:25:30.071Z,12.75
2019-05-25T03:26:29.889Z,12.81
2019-05-25T03:27:29.850Z,12.75
2019-05-25T03:28:29.832Z,12.76
2019-05-25T03:29:29.816Z,12.68
2019-05-25T03:30:29.792Z,12.68
2019-05-25T03:31:29.779Z,12.76
2019-05-25T03:32:29.752Z,12.78
2019-05-25T03:33:29.738Z,12.83
2019-05-25T03:34:29.715Z,12.78
2019-05-25T03:35:29.700Z,12.75
2019-05-25T03:36:29.676Z,12.83
2019-05-25T03:37:29.658Z,12.87
2019-05-25T03:38:29.632Z,12.70
2019-05-25T03:39:29.613Z,12.75
2019-05-25T03:40:29.593Z,12.75
2019-05-25T03:41:29.573Z,12.75
2019-05-25T03:42:29.554Z,12.81
2019-05-25T03:43:29.533Z,12.72
2019-05-25T03:44:29.519Z,12.76
2019-05-25T03:45:29.496Z,12.76
2019-05-25T03:46:29.482Z,12.80
2019-05-25T03:47:29.454Z,12.76
2019-05-25T03:48:29.435Z,12.86
2019-05-25T03:49:29.416Z,12.86
2019-05-25T03:50:29.402Z,12.83
2019-05-25T03:51:29.390Z,12.75
2019-05-25T03:52:29.364Z,12.76
2019-05-25T03:53:29.339Z,12.84
2019-05-25T03:54:29.319Z,12.83
2019-05-25T03:55:29.299Z,12.86
2019-05-25T03:56:29.283Z,12.90
2019-05-25T03:57:29.259Z,13.03
2019-05-25T03:58:29.242Z,13.02
2019-05-25T03:59:29.221Z,13.05
2019-05-25T04:00:29.209Z,13.03
2019-05-25T04:01:29.191Z,13.06
2019-05-25T04:02:29.252Z,13.02
2019-05-25T04:03:29.141Z,13.08
2019-05-25T04:04:29.122Z,13.09
2019-05-25T04:05:29.104Z,13.06
2019-05-25T04:06:29.091Z,13.09
2019-05-25T04:07:29.068Z,13.06
2019-05-25T04:08:29.049Z,12.98
2019-05-25T04:09:29.030Z,13.01
2019-05-25T04:10:29.005Z,13.02
2019-05-25T04:11:28.995Z,12.98
2019-05-25T04:12:28.971Z,12.86
2019-05-25T04:13:28.946Z,12.93
2019-05-25T04:14:28.930Z,12.94
2019-05-25T04:15:28.910Z,12.91
2019-05-25T04:16:28.893Z,12.91
2019-05-25T04:17:28.870Z,13.06
2019-05-25T04:18:28.850Z,13.11
2019-05-25T04:19:28.839Z,13.17
2019-05-25T04:20:28.869Z,13.17
2019-05-25T04:21:28.829Z,13.26
2019-05-25T04:22:28.773Z,13.21
2019-05-25T04:23:28.758Z,13.16
2019-05-25T04:24:28.733Z,13.24
2019-05-25T04:25:28.714Z,13.36
2019-05-25T04:26:28.696Z,13.31
2019-05-25T04:27:28.676Z,13.33
2019-05-25T04:28:28.657Z,13.24
2019-05-25T04:29:28.637Z,13.16
2019-05-25T04:30:28.619Z,13.16
2019-05-25T04:31:28.598Z,13.24
2019-05-25T04:32:28.579Z,13.23
2019-05-25T04:33:28.569Z,13.21
2019-05-25T04:34:28.555Z,13.21
2019-05-25T04:35:28.529Z,13.19
2019-05-25T04:36:28.514Z,13.09
2019-05-25T04:37:28.485Z,12.99
2019-05-25T04:38:28.502Z,13.06
2019-05-25T04:39:28.456Z,13.09
2019-05-25T04:40:28.427Z,13.16
2019-05-25T04:41:28.409Z,13.26
2019-05-25T04:42:28.393Z,13.27
2019-05-25T04:43:28.372Z,13.33
2019-05-25T04:44:28.350Z,13.39
2019-05-25T04:45:28.332Z,13.43
2019-05-25T04:46:28.320Z,13.52
2019-05-25T04:47:28.297Z,13.42
2019-05-25T04:48:28.276Z,13.30
2019-05-25T04:49:28.264Z,13.40
2019-05-25T04:50:28.238Z,13.36
2019-05-25T04:51:28.219Z,13.33
2019-05-25T04:52:28.199Z,13.30
2019-05-25T04:53:28.181Z,13.23
2019-05-25T04:54:28.164Z,13.17
2019-05-25T04:55:28.142Z,13.09
2019-05-25T04:56:38.739Z,13.19
2019-05-25T04:57:28.117Z,13.19
2019-05-25T04:58:28.090Z,13.24
2019-05-25T04:59:28.068Z,13.21
2019-05-25T05:00:28.048Z,13.26
2019-05-25T05:01:28.028Z,13.33
2019-05-25T05:02:28.013Z,13.40
2019-05-25T05:03:27.990Z,13.40
2019-05-25T05:04:27.974Z,13.46
2019-05-25T05:05:27.953Z,13.42
2019-05-25T05:06:27.936Z,13.39
2019-05-25T05:07:27.917Z,13.52
2019-05-25T05:08:27.902Z,13.57
2019-05-25T05:09:27.877Z,13.57
2019-05-25T05:10:27.859Z,13.58
2019-05-25T05:11:27.838Z,13.65
2019-05-25T05:12:27.821Z,13.54
2019-05-25T05:13:27.802Z,13.55
2019-05-25T05:14:27.783Z,13.58
2019-05-25T05:15:27.765Z,13.61
2019-05-25T05:16:27.765Z,13.64
2019-05-25T05:17:27.736Z,13.57
2019-05-25T05:18:27.711Z,13.60
2019-05-25T05:19:27.690Z,13.55
2019-05-25T05:20:27.676Z,13.49
2019-05-25T05:21:27.652Z,13.61
2019-05-25T05:22:27.633Z,13.65
2019-05-25T05:23:27.613Z,13.68
2019-05-25T05:24:27.594Z,13.71
2019-05-25T05:25:27.580Z,13.78
2019-05-25T05:26:27.570Z,13.68
2019-05-25T05:27:27.541Z,13.75
2019-05-25T05:28:27.522Z,13.76
2019-05-25T05:29:27.501Z,13.83
2019-05-25T05:30:27.493Z,13.80
2019-05-25T05:31:27.465Z,13.87
2019-05-25T05:32:28.136Z,13.91
2019-05-25T05:33:27.437Z,13.89
2019-05-25T05:34:27.429Z,13.89
2019-05-25T05:35:27.398Z,13.87
2019-05-25T05:36:27.392Z,13.85
2019-05-25T05:37:27.353Z,13.79
2019-05-25T05:38:27.348Z,14.00
2019-05-25T05:39:27.315Z,13.87
2019-05-25T05:40:27.300Z,13.94
2019-05-25T05:41:27.282Z,13.95
2019-05-25T05:42:27.266Z,14.08
2019-05-25T05:43:27.242Z,14.04
2019-05-25T05:44:27.224Z,13.91
2019-05-25T05:45:27.208Z,13.86
2019-05-25T05:46:27.187Z,13.89
2019-05-25T05:47:27.167Z,13.82
2019-05-25T05:48:27.158Z,13.86
2019-05-25T05:49:27.140Z,13.93
2019-05-25T05:50:27.121Z,13.93
2019-05-25T05:51:27.097Z,13.91
2019-05-25T05:52:27.195Z,14.01
2019-05-25T05:53:27.062Z,14.03
2019-05-25T05:54:27.039Z,14.05
2019-05-25T05:55:27.022Z,14.04
2019-05-25T05:56:27.008Z,14.08
2019-05-25T05:57:26.986Z,14.11
2019-05-25T05:58:26.977Z,14.22
2019-05-25T05:59:26.966Z,14.13
2019-05-25T06:00:26.929Z,14.19
2019-05-25T06:01:26.911Z,14.20
2019-05-25T06:02:26.895Z,14.22
2019-05-25T06:03:26.931Z,14.28
2019-05-25T06:04:26.859Z,14.23
2019-05-25T06:05:26.841Z,14.25
2019-05-25T06:06:26.822Z,14.08
2019-05-25T06:07:27.555Z,13.89
2019-05-25T06:08:26.791Z,13.80
2019-05-25T06:09:26.771Z,13.93
2019-05-25T06:10:26.751Z,13.83
2019-05-25T06:11:26.728Z,13.87
2019-05-25T06:12:26.710Z,13.86
2019-05-25T06:13:26.694Z,13.91
2019-05-25T06:14:26.674Z,14.05
2019-05-25T06:15:26.670Z,14.05
2019-05-25T06:16:26.635Z,14.04
2019-05-25T06:17:26.627Z,14.05
2019-05-25T06:18:26.610Z,14.05
2019-05-25T06:19:26.583Z,14.05
2019-05-25T06:20:26.566Z,14.03
2019-05-25T06:21:26.546Z,14.07
2019-05-25T06:22:26.552Z,14.23
2019-05-25T06:23:26.515Z,14.44
2019-05-25T06:24:26.491Z,14.53
2019-05-25T06:25:26.476Z,14.53
2019-05-25T06:26:26.492Z,14.59
2019-05-25T06:27:27.931Z,14.74
2019-05-25T06:28:26.419Z,14.74
2019-05-25T06:29:26.403Z,14.99
2019-05-25T06:30:26.382Z,15.02
2019-05-25T06:31:26.364Z,15.11
2019-05-25T06:32:26.347Z,14.99
2019-05-25T06:33:26.329Z,15.07
2019-05-25T06:34:26.310Z,15.18
2019-05-25T06:35:26.293Z,15.26
2019-05-25T06:36:26.274Z,15.25
2019-05-25T06:37:26.259Z,15.26
2019-05-25T06:38:26.243Z,15.33
2019-05-25T06:39:26.222Z,15.41
2019-05-25T06:40:26.207Z,15.51
2019-05-25T06:41:26.186Z,15.41
2019-05-25T06:42:26.176Z,15.63
2019-05-25T06:43:26.154Z,15.80
2019-05-25T06:44:26.283Z,15.81
2019-05-25T06:45:26.118Z,15.73
2019-05-25T06:46:26.108Z,15.94
2019-05-25T06:47:26.084Z,16.17
2019-05-25T06:48:26.078Z,16.16
2019-05-25T06:49:26.082Z,16.02
2019-05-25T06:50:26.031Z,16.09
2019-05-25T06:51:26.018Z,16.18
2019-05-25T06:52:26.039Z,16.03
2019-05-25T06:53:25.978Z,15.81
2019-05-25T06:54:25.962Z,15.50
2019-05-25T06:55:25.953Z,15.70
2019-05-25T06:56:25.931Z,15.66
2019-05-25T06:57:25.912Z,15.65
2019-05-25T06:59:10.266Z,15.66
2019-05-25T07:00:10.264Z,15.65
2019-05-25T07:01:10.243Z,15.54
2019-05-25T07:02:10.218Z,15.69
2019-05-25T07:03:12.821Z,15.73
2019-05-25T07:04:10.206Z,15.81
2019-05-25T07:05:10.176Z,15.92
2019-05-25T07:06:10.150Z,16.34
2019-05-25T07:07:10.143Z,16.46
2019-05-25T07:08:10.117Z,16.51
2019-05-25T07:09:10.108Z,16.41
2019-05-25T07:10:10.083Z,16.43
2019-05-25T07:11:10.077Z,16.40
2019-05-25T07:12:10.052Z,16.29
2019-05-25T07:13:10.047Z,16.25
2019-05-25T07:14:10.030Z,15.88
2019-05-25T07:15:10.015Z,16.00
2019-05-25T07:16:09.985Z,16.02
2019-05-25T07:17:10.191Z,16.16
2019-05-25T07:18:09.968Z,16.17
2019-05-25T07:19:09.950Z,16.18
2019-05-25T07:20:09.922Z,16.28
2019-05-25T07:21:09.909Z,16.22
2019-05-25T07:22:09.889Z,16.21
2019-05-25T07:23:09.870Z,16.29
2019-05-25T07:24:09.854Z,16.34
2019-05-25T07:25:09.837Z,16.17
2019-05-25T07:26:09.833Z,16.09
2019-05-25T07:27:09.805Z,16.05
2019-05-25T07:28:09.787Z,16.16
2019-05-25T07:29:09.770Z,16.24
2019-05-25T07:30:09.757Z,16.16
2019-05-25T07:31:09.740Z,16.13
2019-05-25T07:32:09.737Z,16.02
2019-05-25T07:33:09.715Z,15.84
2019-05-25T07:34:09.689Z,15.83
2019-05-25T07:35:09.677Z,15.75
2019-05-25T07:36:09.658Z,15.94
2019-05-25T07:37:09.644Z,16.08
2019-05-25T07:38:09.624Z,16.10
2019-05-25T07:39:09.608Z,16.22
2019-05-25T07:40:09.642Z,16.18
2019-05-25T07:41:09.573Z,16.36
2019-05-25T07:42:09.558Z,16.34
2019-05-25T07:43:09.540Z,16.46
2019-05-25T07:44:09.526Z,16.54
2019-05-25T07:45:09.518Z,16.54
2019-05-25T07:46:09.492Z,16.43
2019-05-25T07:47:09.528Z,16.47
2019-05-25T07:48:09.459Z,16.36
2019-05-25T07:49:09.443Z,16.47
2019-05-25T07:50:09.476Z,16.41
2019-05-25T07:51:09.420Z,16.44
2019-05-25T07:52:09.405Z,16.59
2019-05-25T07:53:09.434Z,16.65
2019-05-25T07:54:09.363Z,16.77
2019-05-25T07:55:09.349Z,16.76
2019-05-25T07:56:09.341Z,16.72
2019-05-25T07:57:09.317Z,16.66
2019-05-25T07:58:17.705Z,16.49
2019-05-25T07:59:09.281Z,16.66
2019-05-25T08:00:10.076Z,16.64
2019-05-25T08:01:09.250Z,16.57
2019-05-25T08:02:09.235Z,16.59
2019-05-25T08:03:09.217Z,16.73
2019-05-25T08:04:09.202Z,17.17
2019-05-25T08:05:09.192Z,17.42
2019-05-25T08:06:09.170Z,17.54
2019-05-25T08:07:09.161Z,17.78
2019-05-25T08:08:09.143Z,17.91
2019-05-25T08:09:09.139Z,17.73
2019-05-25T08:10:09.118Z,17.90
2019-05-25T08:11:09.097Z,17.90
2019-05-25T08:12:09.133Z,18.05
2019-05-25T08:13:09.069Z,17.72
2019-05-25T08:14:09.053Z,17.98
2019-05-25T08:15:09.031Z,17.91
2019-05-25T08:16:09.015Z,17.87
2019-05-25T08:17:08.999Z,17.57
2019-05-25T08:18:08.996Z,17.46
2019-05-25T08:19:08.976Z,17.54
2019-05-25T08:20:08.968Z,17.78
2019-05-25T08:21:08.953Z,17.75
2019-05-25T08:22:08.935Z,18.05
2019-05-25T08:23:08.918Z,18.00
2019-05-25T08:24:08.903Z,18.03
2019-05-25T08:25:08.884Z,17.94
2019-05-25T08:26:08.872Z,18.05
2019-05-25T08:27:08.857Z,18.02
2019-05-25T08:28:08.871Z,18.13
2019-05-25T08:29:08.844Z,17.95
2019-05-25T08:30:08.811Z,17.97
2019-05-25T08:31:08.790Z,17.94
2019-05-25T08:32:08.782Z,17.87
2019-05-25T08:33:08.762Z,17.73
2019-05-25T08:34:08.756Z,17.80
2019-05-25T08:35:08.740Z,17.50
2019-05-25T08:36:08.727Z,17.01
2019-05-25T08:37:08.705Z,16.95
2019-05-25T08:38:08.692Z,17.32
2019-05-25T08:39:08.679Z,17.44
2019-05-25T08:40:08.663Z,17.32
2019-05-25T08:41:08.645Z,17.22
2019-05-25T08:42:08.638Z,17.31
2019-05-25T08:43:08.615Z,17.57
2019-05-25T08:44:08.602Z,17.63
2019-05-25T08:45:08.597Z,18.03
2019-05-25T08:46:08.585Z,18.12
2019-05-25T08:47:08.573Z,18.23
2019-05-25T08:48:08.549Z,18.23
2019-05-25T08:49:08.543Z,18.16
2019-05-25T08:50:08.520Z,18.21
2019-05-25T08:51:08.509Z,17.98
2019-05-25T08:52:08.648Z,17.78
2019-05-25T08:53:08.469Z,17.82
2019-05-25T08:54:08.460Z,18.00
2019-05-25T08:55:08.544Z,18.05
2019-05-25T08:56:08.428Z,18.09
2019-05-25T08:57:08.443Z,18.03
2019-05-25T08:58:08.399Z,17.90
2019-05-25T08:59:08.393Z,17.76
2019-05-25T09:00:08.377Z,17.80
2019-05-25T09:01:08.422Z,18.00
2019-05-25T09:02:08.343Z,18.05
2019-05-25T09:03:08.329Z,18.21
2019-05-25T09:04:08.323Z,18.24
2019-05-25T09:05:08.329Z,18.05
2019-05-25T09:06:08.286Z,18.05
2019-05-25T09:19:07.007Z,19.00
2019-05-25T09:20:06.990Z,19.17
2019-05-25T09:21:06.977Z,19.39
2019-05-25T09:22:06.972Z,19.29
2019-05-25T09:23:06.969Z,19.26
2019-05-25T09:24:06.934Z,19.29
2019-05-25T09:25:06.915Z,19.47
2019-05-25T09:26:06.906Z,18.97
2019-05-25T09:27:06.883Z,18.81
2019-05-25T09:36:19.245Z,18.74
2019-05-25T09:37:19.230Z,18.86
2019-05-25T09:38:19.214Z,18.85
2019-05-25T09:39:19.209Z,18.89
2019-05-25T09:40:19.192Z,19.22
2019-05-25T09:41:19.205Z,19.23
2019-05-25T09:42:19.165Z,19.63
2019-05-25T09:43:19.143Z,19.62
2019-05-25T09:44:19.136Z,19.41
2019-05-25T09:45:19.120Z,19.01
2019-05-25T09:46:19.110Z,18.91
2019-05-25T09:47:21.711Z,18.88
2019-05-25T09:51:15.431Z,21.04
2019-05-25T09:52:06.782Z,21.41
2019-05-25T09:53:06.778Z,21.53
2019-05-25T09:54:06.757Z,21.10
2019-05-25T09:55:06.755Z,21.13
2019-05-25T09:56:06.741Z,20.36
2019-05-25T09:57:06.731Z,20.04
2019-05-25T09:58:39.920Z,19.84
2019-05-25T09:59:39.907Z,19.30
2019-05-25T10:00:06.686Z,19.17
2019-05-25T10:01:06.676Z,18.88
2019-05-25T10:02:06.670Z,18.79
2019-05-25T10:03:06.649Z,18.83
2019-05-25T10:04:06.638Z,19.37
2019-05-25T10:05:06.641Z,20.44
2019-05-25T10:06:11.639Z,21.17
2019-05-25T10:07:06.609Z,21.94
2019-05-25T10:08:06.600Z,22.21
2019-05-25T10:09:06.579Z,21.78
2019-05-25T10:10:06.571Z,22.04
2019-05-25T10:11:06.560Z,22.19
2019-05-25T10:12:06.560Z,21.68
2019-05-25T10:13:06.537Z,21.35
2019-05-25T10:14:06.532Z,20.44
2019-05-25T10:15:06.556Z,20.18
2019-05-25T10:16:06.527Z,19.32
2019-05-25T10:17:06.500Z,19.16
2019-05-25T10:18:06.491Z,19.00
2019-05-25T10:19:06.490Z,18.42
2019-05-25T10:20:06.481Z,18.64
2019-05-25T10:21:06.462Z,18.73
2019-05-25T10:22:06.462Z,18.78
2019-05-25T10:23:06.454Z,19.08
2019-05-25T10:24:06.449Z,18.98
2019-05-25T10:25:06.433Z,18.78
2019-05-25T10:26:06.413Z,18.42
2019-05-25T10:27:06.453Z,18.61
2019-05-25T10:28:06.405Z,18.68
2019-05-25T10:29:06.379Z,19.62
2019-05-25T10:30:06.373Z,20.11
2019-05-25T10:31:06.360Z,20.07
2019-05-25T10:32:06.350Z,19.82
2019-05-25T10:33:06.336Z,19.30
2019-05-25T10:34:06.340Z,19.30
2019-05-25T10:35:06.323Z,19.63
2019-05-25T10:36:06.304Z,19.81
2019-05-25T10:37:06.294Z,19.47
2019-05-25T10:38:06.283Z,19.17
2019-05-25T10:39:06.290Z,19.04
2019-05-25T10:40:06.265Z,18.98
2019-05-25T10:41:06.254Z,19.77
2019-05-25T10:42:06.244Z,20.22
2019-05-25T10:43:06.230Z,20.36
2019-05-25T10:44:06.220Z,20.58
2019-05-25T10:45:06.216Z,20.67
2019-05-25T10:46:06.226Z,20.48
2019-05-25T10:47:06.199Z,20.70
2019-05-25T10:48:06.177Z,20.70
2019-05-25T10:49:06.195Z,20.36
2019-05-25T10:50:06.160Z,19.87
2019-05-25T10:51:06.145Z,19.77
2019-05-25T10:52:06.143Z,20.03
2019-05-25T10:53:06.135Z,19.87
2019-05-25T10:54:06.157Z,19.78
2019-05-25T10:55:06.114Z,19.39
2019-05-25T10:56:06.089Z,19.07
2019-05-25T10:57:06.076Z,18.71
2019-05-25T10:58:08.688Z,18.68
2019-05-25T10:59:06.055Z,19.26
2019-05-25T11:00:06.659Z,19.71
2019-05-25T11:01:06.047Z,19.92
2019-05-25T11:02:55.257Z,20.24
2019-05-25T11:03:55.247Z,20.32
2019-05-25T11:04:57.864Z,20.29
2019-05-25T11:06:54.291Z,20.12
2019-05-25T11:09:33.434Z,19.93
2019-05-25T11:10:33.423Z,19.70
2019-05-25T11:11:33.416Z,20.03
2019-05-25T11:13:06.612Z,20.14
2019-05-25T11:14:06.608Z,20.21
2019-05-25T11:15:06.585Z,20.39
2019-05-25T11:16:06.586Z,20.44
2019-05-25T11:17:06.562Z,20.44
2019-05-25T11:17:33.342Z,20.36
2019-05-25T11:18:33.341Z,20.14
2019-05-25T11:19:33.316Z,20.21
2019-05-25T11:20:33.319Z,20.30
2019-05-25T11:21:33.313Z,20.11
2019-05-25T11:22:33.280Z,20.19
2019-05-25T11:23:33.293Z,19.81
2019-05-25T11:24:33.298Z,19.84
2019-05-25T11:25:33.243Z,19.94
2019-05-25T11:27:06.450Z,19.99
2019-05-25T11:27:33.229Z,20.56
2019-05-25T11:28:33.210Z,20.34
2019-05-25T11:29:33.197Z,20.18
2019-05-25T11:30:33.197Z,20.24
2019-05-25T11:31:33.385Z,20.08
2019-05-25T11:32:33.161Z,20.02
2019-05-25T11:33:36.266Z,20.18
2019-05-25T11:34:33.137Z,20.17
2019-05-25T11:36:06.336Z,20.19
2019-05-25T11:36:33.122Z,20.12
2019-05-25T11:37:33.108Z,20.11
2019-05-25T11:38:33.090Z,19.84
2019-05-25T11:40:27.123Z,19.89
2019-05-25T11:41:27.111Z,19.93
2019-05-25T11:42:27.094Z,19.78
2019-05-25T11:44:00.344Z,19.81
2019-05-25T11:45:00.284Z,19.62
2019-05-25T11:46:00.275Z,19.42
2019-05-25T11:48:12.298Z,19.78
2019-05-25T11:49:22.220Z,19.84
2019-05-25T11:50:12.277Z,20.04
2019-05-25T11:52:57.527Z,20.37
2019-05-25T11:53:57.497Z,19.99
2019-05-25T11:54:57.486Z,20.19
2019-05-25T11:57:42.523Z,19.70
2019-05-25T11:58:47.569Z,19.74
2019-05-25T12:00:24.816Z,20.03
2019-05-25T12:01:15.705Z,20.04
2019-05-25T12:02:15.682Z,20.18
2019-05-25T12:02:42.479Z,20.21
2019-05-25T12:03:42.452Z,20.07
2019-05-25T12:05:15.643Z,20.04
2019-05-25T12:06:15.638Z,19.57
2019-05-25T12:06:42.407Z,19.30
2019-05-25T12:09:27.896Z,19.81
2019-05-25T12:10:27.882Z,19.92
2019-05-25T12:12:01.090Z,19.82
2019-05-25T12:13:01.071Z,19.96
2019-05-25T12:14:01.066Z,20.17
2019-05-25T12:16:13.090Z,20.34
2019-05-25T12:17:13.098Z,20.33
2019-05-25T12:18:46.275Z,20.40
2019-05-25T12:20:07.340Z,20.15
2019-05-25T12:22:52.426Z,19.45
2019-05-25T12:25:37.317Z,19.23
2019-05-25T12:28:22.503Z,20.08
2019-05-25T12:31:07.746Z,20.07
2019-05-25T12:33:52.881Z,19.24
2019-05-25T12:36:37.919Z,19.60
2019-05-25T12:39:26.467Z,19.78
2019-05-25T12:42:07.999Z,20.24
2019-05-25T12:44:53.248Z,20.40
2019-05-25T12:47:38.339Z,20.15
